Time;durP1;ratioP1;P1;durP2;ratioP2;P2;SDS_P1;SDS_P2;PMS_P1;PMS_P2;Temp;Humidity;BMP_temperature;BMP_pressure;BME280_temperature;BME280_humidity;BME280_pressure;Samples;Min_cycle;Max_cycle;Signal;HPM_P1;HPM_P2
2023/06/21 00:01:08;;;;;;;43.40;27.73;;;;;;;;;;6259880;28;20037;-52
2023/06/21 00:04:13;;;;;;;45.85;28.00;;;;;;;;;;6261969;28;20075;-57
2023/06/21 00:07:14;;;;;;;42.13;27.33;;;;;;;;;;6260180;28;20245;-56
2023/06/21 00:10:14;;;;;;;43.67;27.60;;;;;;;;;;6260110;28;20045;-57
2023/06/21 00:13:15;;;;;;;41.03;28.07;;;;;;;;;;6261201;28;20041;-53
2023/06/21 00:16:16;;;;;;;44.37;28.57;;;;;;;;;;6260707;28;20423;-53
2023/06/21 00:19:16;;;;;;;45.33;27.70;;;;;;;;;;6259952;28;20044;-56
2023/06/21 00:22:21;;;;;;;42.20;26.53;;;;;;;;;;6265552;28;20045;-54
2023/06/21 00:25:25;;;;;;;42.55;28.50;;;;;;;;;;6264853;28;20413;-52
2023/06/21 00:28:25;;;;;;;46.17;28.85;;;;;;;;;;6260136;28;20048;-55
2023/06/21 00:31:26;;;;;;;46.40;28.50;;;;;;;;;;6261350;28;20171;-55
2023/06/21 00:34:27;;;;;;;44.93;29.00;;;;;;;;;;6261110;28;20036;-53
2023/06/21 00:37:27;;;;;;;42.53;28.10;;;;;;;;;;6260789;28;20061;-54
2023/06/21 00:40:28;;;;;;;47.53;28.10;;;;;;;;;;6260108;28;20041;-57
2023/06/21 00:43:29;;;;;;;46.63;28.97;;;;;;;;;;6260337;28;20068;-55
2023/06/21 00:46:34;;;;;;;45.73;28.73;;;;;;;;;;6260945;28;20500;-55
2023/06/21 00:49:35;;;;;;;47.47;28.88;;;;;;;;;;6259539;28;20441;-54
2023/06/21 00:52:37;;;;;;;46.17;28.27;;;;;;;;;;6259184;28;22388;-55
2023/06/21 00:55:40;;;;;;;44.78;28.40;;;;;;;;;;6261781;28;20071;-53
2023/06/21 00:58:40;;;;;;;43.88;28.30;;;;;;;;;;6258511;28;20163;-56
2023/06/21 01:01:41;;;;;;;45.40;28.77;;;;;;;;;;6257442;28;20131;-55
2023/06/21 01:04:42;;;;;;;43.77;29.00;;;;;;;;;;6258811;28;20049;-54
2023/06/21 01:07:52;;;;;;;46.42;29.08;;;;;;;;;;6259143;28;20109;-55
2023/06/21 01:11:23;;;;;;;43.38;27.52;;;;;;;;;;6259671;28;20435;-56
2023/06/21 01:14:52;;;;;;;42.30;29.02;;;;;;;;;;6259637;28;20098;-55
2023/06/21 01:17:56;;;;;;;46.85;29.35;;;;;;;;;;6258163;28;20079;-55
2023/06/21 01:20:58;;;;;;;43.65;28.48;;;;;;;;;;6259454;28;20599;-56
2023/06/21 01:24:06;;;;;;;;;;;;;;;;;;6255788;28;20187;-54
2023/06/21 01:27:30;;;;;;;45.30;27.60;;;;;;;;;;6259024;28;19924;-55
2023/06/21 01:30:31;;;;;;;42.50;28.23;;;;;;;;;;6257912;28;20044;-56
2023/06/21 01:33:33;;;;;;;48.13;28.58;;;;;;;;;;6257924;28;20045;-53
2023/06/21 01:36:36;;;;;;;43.13;28.67;;;;;;;;;;6257391;28;20037;-55
2023/06/21 01:39:37;;;;;;;43.97;29.85;;;;;;;;;;6258075;28;20161;-55
2023/06/21 01:42:38;;;;;;;43.13;28.57;;;;;;;;;;6257753;28;20469;-54
2023/06/21 01:45:39;;;;;;;42.57;28.57;;;;;;;;;;6257278;28;20052;-57
2023/06/21 01:48:41;;;;;;;45.13;29.47;;;;;;;;;;6258107;28;20049;-51
2023/06/21 01:51:44;;;;;;;44.10;28.77;;;;;;;;;;6266635;28;20124;-53
2023/06/21 01:54:45;;;;;;;;;;;;;;;;;;6260009;28;20052;-56
2023/06/21 01:57:47;;;;;;;40.57;28.10;;;;;;;;;;6258458;28;20409;-54
2023/06/21 02:00:47;;;;;;;43.63;29.10;;;;;;;;;;6259901;28;20294;-56
2023/06/21 02:03:53;;;;;;;44.13;27.87;;;;;;;;;;6258444;28;20256;-54
2023/06/21 02:06:55;;;;;;;46.60;28.60;;;;;;;;;;6257359;28;20195;-54
2023/06/21 02:09:56;;;;;;;;;;;;;;;;;;6259253;28;20768;-53
2023/06/21 02:12:56;;;;;;;41.67;27.27;;;;;;;;;;6257391;28;19932;-55
2023/06/21 02:15:57;;;;;;;41.08;27.85;;;;;;;;;;6258366;28;20051;-52
2023/06/21 02:18:58;;;;;;;44.13;27.40;;;;;;;;;;6265245;28;20037;-54
2023/06/21 02:21:58;;;;;;;44.90;28.43;;;;;;;;;;6257542;28;20479;-55
2023/06/21 02:24:59;;;;;;;48.87;30.07;;;;;;;;;;6260306;28;20064;-55
2023/06/21 02:27:59;;;;;;;44.67;28.50;;;;;;;;;;6258719;28;20068;-55
2023/06/21 02:31:00;;;;;;;49.47;28.73;;;;;;;;;;6258562;28;20493;-54
2023/06/21 02:34:01;;;;;;;43.97;28.37;;;;;;;;;;6257823;28;20112;-58
2023/06/21 02:37:01;;;;;;;46.27;28.80;;;;;;;;;;6258689;28;20052;-54
2023/06/21 02:40:12;;;;;;;43.13;27.83;;;;;;;;;;6257555;28;20405;-54
2023/06/21 02:43:13;;;;;;;44.53;28.20;;;;;;;;;;6258314;28;20075;-55
2023/06/21 02:46:14;;;;;;;47.80;28.50;;;;;;;;;;6256766;28;20576;-54
2023/06/21 02:49:14;;;;;;;47.43;28.53;;;;;;;;;;6257800;28;20049;-53
2023/06/21 02:52:15;;;;;;;47.80;27.70;;;;;;;;;;6257899;28;20131;-51
2023/06/21 02:55:16;;;;;;;49.70;30.23;;;;;;;;;;6256666;28;20373;-52
2023/06/21 02:58:16;;;;;;;45.43;29.17;;;;;;;;;;6259721;28;20033;-54
2023/06/21 03:01:17;;;;;;;43.23;28.07;;;;;;;;;;6260647;28;20056;-56
2023/06/21 03:04:18;;;;;;;49.97;28.70;;;;;;;;;;6256055;28;20121;-58
2023/06/21 03:07:19;;;;;;;48.27;29.90;;;;;;;;;;6253045;28;20037;-56
2023/06/21 03:10:20;;;;;;;44.57;28.87;;;;;;;;;;6260459;28;20091;-57
2023/06/21 03:13:21;;;;;;;45.22;29.52;;;;;;;;;;6257200;28;20405;-51
2023/06/21 03:16:22;;;;;;;47.17;29.80;;;;;;;;;;6256068;28;20112;-57
2023/06/21 03:19:22;;;;;;;45.60;28.83;;;;;;;;;;6258904;28;20400;-56
2023/06/21 03:22:23;;;;;;;44.87;28.47;;;;;;;;;;6257014;28;20044;-54
2023/06/21 03:25:23;;;;;;;50.00;30.20;;;;;;;;;;6262657;28;20059;-54
2023/06/21 03:28:24;;;;;;;46.33;30.00;;;;;;;;;;6255540;28;20139;-54
2023/06/21 03:31:25;;;;;;;49.23;30.23;;;;;;;;;;6258377;28;20059;-55
2023/06/21 03:34:25;;;;;;;45.50;29.20;;;;;;;;;;6256286;28;20440;-56
2023/06/21 03:37:26;;;;;;;49.53;31.00;;;;;;;;;;6262372;28;20094;-54
2023/06/21 03:40:27;;;;;;;47.38;28.98;;;;;;;;;;6258310;28;20249;-56
2023/06/21 03:43:28;;;;;;;47.73;30.37;;;;;;;;;;6256521;28;20068;-54
2023/06/21 03:46:28;;;;;;;46.10;29.87;;;;;;;;;;6255768;28;20072;-54
2023/06/21 03:49:30;;;;;;;49.30;31.27;;;;;;;;;;6263348;28;20045;-56
2023/06/21 03:52:30;;;;;;;48.42;31.52;;;;;;;;;;6256726;28;20383;-58
2023/06/21 03:55:31;;;;;;;49.90;32.30;;;;;;;;;;6255899;28;20045;-59
2023/06/21 03:58:31;;;;;;;49.73;32.30;;;;;;;;;;6258247;28;20508;-54
2023/06/21 04:01:32;;;;;;;51.97;31.80;;;;;;;;;;6257278;28;20126;-56
2023/06/21 04:04:33;;;;;;;50.10;30.90;;;;;;;;;;6260509;28;20072;-59
2023/06/21 04:07:33;;;;;;;47.50;31.93;;;;;;;;;;6257995;28;20111;-55
2023/06/21 04:10:34;;;;;;;52.47;32.13;;;;;;;;;;6255320;28;20120;-54
2023/06/21 04:13:35;;;;;;;46.83;31.33;;;;;;;;;;6255952;28;20052;-59
2023/06/21 04:16:36;;;;;;;47.45;30.70;;;;;;;;;;6252019;28;20475;-54
2023/06/21 04:19:36;;;;;;;50.67;31.93;;;;;;;;;;6254068;28;20057;-53
2023/06/21 04:22:41;;;;;;;50.07;31.20;;;;;;;;;;6254628;28;20077;-57
2023/06/21 04:25:41;;;;;;;47.95;31.67;;;;;;;;;;6254350;28;20049;-55
2023/06/21 04:28:42;;;;;;;49.30;31.43;;;;;;;;;;6255327;28;20063;-57
2023/06/21 04:31:43;;;;;;;46.70;31.17;;;;;;;;;;6256476;28;20041;-56
2023/06/21 04:34:47;;;;;;;50.33;32.38;;;;;;;;;;6256796;28;20432;-60
2023/06/21 04:37:49;;;;;;;51.15;33.22;;;;;;;;;;6257499;28;20409;-54
2023/06/21 04:40:53;;;;;;;52.25;32.30;;;;;;;;;;6261763;28;20045;-55
2023/06/21 04:43:54;;;;;;;48.55;31.83;;;;;;;;;;6260492;28;20085;-56
2023/06/21 04:46:55;;;;;;;50.43;32.13;;;;;;;;;;6260148;28;20051;-55
2023/06/21 04:49:55;;;;;;;46.80;31.05;;;;;;;;;;6259420;28;20068;-55
2023/06/21 04:52:59;;;;;;;49.00;33.07;;;;;;;;;;6259533;28;20412;-58
2023/06/21 04:56:00;;;;;;;49.67;31.52;;;;;;;;;;6256622;28;20068;-53
2023/06/21 04:59:01;;;;;;;48.45;31.42;;;;;;;;;;6261024;28;20492;-59
2023/06/21 05:02:02;;;;;;;47.80;29.67;;;;;;;;;;6262056;28;20437;-59
2023/06/21 05:05:03;;;;;;;41.13;28.93;;;;;;;;;;6258249;28;20045;-59
2023/06/21 05:08:04;;;;;;;44.80;30.23;;;;;;;;;;6262180;28;20044;-59
2023/06/21 05:11:06;;;;;;;44.05;29.20;;;;;;;;;;6263270;28;20037;-59
2023/06/21 05:14:07;;;;;;;44.78;29.42;;;;;;;;;;6260443;28;20049;-60
2023/06/21 05:17:08;;;;;;;45.50;29.03;;;;;;;;;;6264309;28;20041;-59
2023/06/21 05:20:09;;;;;;;47.00;29.58;;;;;;;;;;6262197;28;20037;-59
2023/06/21 05:23:10;;;;;;;47.28;29.85;;;;;;;;;;6264276;28;20500;-59
2023/06/21 05:26:10;;;;;;;49.17;29.70;;;;;;;;;;6260500;28;20044;-63
2023/06/21 05:29:11;;;;;;;51.03;30.30;;;;;;;;;;6264616;28;20055;-59
2023/06/21 05:32:12;;;;;;;46.03;30.53;;;;;;;;;;6260967;28;20103;-59
2023/06/21 05:35:12;;;;;;;47.83;30.97;;;;;;;;;;6260281;28;20083;-58
2023/06/21 05:38:13;;;;;;;47.67;29.73;;;;;;;;;;6265903;28;20049;-59
2023/06/21 05:41:14;;;;;;;47.23;29.93;;;;;;;;;;6265174;28;20069;-59
2023/06/21 05:44:15;;;;;;;48.50;29.40;;;;;;;;;;6261485;28;20075;-60
2023/06/21 05:47:15;;;;;;;;;;;;;;;;;;6263995;28;20069;-60
2023/06/21 05:50:16;;;;;;;44.77;29.40;;;;;;;;;;6262304;28;19928;-59
2023/06/21 05:53:17;;;;;;;46.23;29.63;;;;;;;;;;6260055;28;22348;-59
2023/06/21 05:56:17;;;;;;;49.07;30.07;;;;;;;;;;6253891;28;20045;-59
2023/06/21 05:59:18;;;;;;;51.60;30.20;;;;;;;;;;6259800;28;20033;-60
2023/06/21 06:02:18;;;;;;;44.67;30.10;;;;;;;;;;6256155;28;20053;-60
2023/06/21 06:05:19;;;;;;;49.83;30.67;;;;;;;;;;6255672;28;20044;-59
2023/06/21 06:08:20;;;;;;;46.67;30.03;;;;;;;;;;6257296;28;20048;-59
2023/06/21 06:11:21;;;;;;;47.40;30.13;;;;;;;;;;6258173;28;20065;-59
2023/06/21 06:14:22;;;;;;;52.93;29.60;;;;;;;;;;6255136;28;20502;-59
2023/06/21 06:17:23;;;;;;;52.60;31.00;;;;;;;;;;6260007;28;20730;-59
2023/06/21 06:20:26;;;;;;;48.40;28.93;;;;;;;;;;6258683;28;20044;-60
2023/06/21 06:23:26;;;;;;;45.08;27.60;;;;;;;;;;6256960;28;20049;-60
2023/06/21 06:26:27;;;;;;;42.17;27.83;;;;;;;;;;6256083;28;20063;-60
2023/06/21 06:29:28;;;;;;;44.08;28.48;;;;;;;;;;6255414;28;20041;-59
2023/06/21 06:32:28;;;;;;;43.70;27.27;;;;;;;;;;6253475;28;20128;-59
2023/06/21 06:35:29;;;;;;;45.77;28.27;;;;;;;;;;6253626;28;20806;-59
2023/06/21 06:38:30;;;;;;;43.50;27.63;;;;;;;;;;6257803;28;20056;-58
2023/06/21 06:41:30;;;;;;;43.53;27.53;;;;;;;;;;6257430;28;20044;-61
2023/06/21 06:44:31;;;;;;;41.03;26.87;;;;;;;;;;6255405;28;20049;-60
2023/06/21 06:47:31;;;;;;;46.63;28.27;;;;;;;;;;6255872;28;20041;-59
2023/06/21 06:50:32;;;;;;;43.20;27.20;;;;;;;;;;6251540;28;20549;-56
2023/06/21 06:53:33;;;;;;;40.85;27.10;;;;;;;;;;6254503;28;20041;-58
2023/06/21 06:56:33;;;;;;;45.03;26.97;;;;;;;;;;6257205;28;20049;-60
2023/06/21 06:59:34;;;;;;;43.63;26.80;;;;;;;;;;6259377;28;20074;-61
2023/06/21 07:02:34;;;;;;;44.33;26.80;;;;;;;;;;6257339;28;20369;-61
2023/06/21 07:05:35;;;;;;;41.73;26.70;;;;;;;;;;6252217;28;20147;-60
2023/06/21 07:08:36;;;;;;;42.33;25.43;;;;;;;;;;6253204;28;20057;-61
2023/06/21 07:11:37;;;;;;;41.47;25.47;;;;;;;;;;6253722;28;20057;-60
2023/06/21 07:14:38;;;;;;;44.45;25.67;;;;;;;;;;6251397;28;20712;-59
2023/06/21 07:17:38;;;;;;;43.23;26.80;;;;;;;;;;6256358;28;20068;-59
2023/06/21 07:20:39;;;;;;;42.90;26.23;;;;;;;;;;6255432;28;20059;-60
2023/06/21 07:23:39;;;;;;;45.77;26.30;;;;;;;;;;6253731;28;20052;-61
2023/06/21 07:26:40;;;;;;;43.97;26.83;;;;;;;;;;6256689;28;20286;-61
2023/06/21 07:29:41;;;;;;;43.40;27.43;;;;;;;;;;6255164;28;20167;-61
2023/06/21 07:32:41;;;;;;;44.20;26.70;;;;;;;;;;6254787;28;20854;-61
2023/06/21 07:35:42;;;;;;;37.17;25.58;;;;;;;;;;6253005;28;20038;-61
2023/06/21 07:38:46;;;;;;;41.73;26.87;;;;;;;;;;6254060;28;20539;-61
2023/06/21 07:41:46;;;;;;;42.05;27.23;;;;;;;;;;6253780;28;20410;-60
2023/06/21 07:44:50;;;;;;;47.93;27.37;;;;;;;;;;6251961;28;20098;-61
2023/06/21 07:47:51;;;;;;;45.83;27.42;;;;;;;;;;6253592;28;20484;-60
2023/06/21 07:50:51;;;;;;;40.43;25.87;;;;;;;;;;6254784;28;20099;-61
2023/06/21 07:53:52;;;;;;;42.70;27.02;;;;;;;;;;6254623;28;20400;-62
2023/06/21 07:56:53;;;;;;;45.87;27.23;;;;;;;;;;6254500;28;20404;-61
2023/06/21 07:59:55;;;;;;;43.20;27.80;;;;;;;;;;6254567;28;20516;-61
2023/06/21 08:02:56;;;;;;;44.42;27.83;;;;;;;;;;6251903;28;20044;-60
2023/06/21 08:05:57;;;;;;;45.78;29.65;;;;;;;;;;6255038;28;20042;-60
2023/06/21 08:08:57;;;;;;;46.07;28.60;;;;;;;;;;6255439;28;20443;-61
2023/06/21 08:12:00;;;;;;;45.80;29.60;;;;;;;;;;6252831;28;20285;-61
2023/06/21 08:15:00;;;;;;;45.67;28.95;;;;;;;;;;6250319;28;20068;-59
2023/06/21 08:18:01;;;;;;;44.47;27.52;;;;;;;;;;6253408;28;20532;-60
2023/06/21 08:21:03;;;;;;;39.03;25.90;;;;;;;;;;6254496;28;20603;-59
2023/06/21 08:24:04;;;;;;;41.92;26.73;;;;;;;;;;6255872;28;20048;-61
2023/06/21 08:27:05;;;;;;;42.20;26.10;;;;;;;;;;6257039;28;20519;-59
2023/06/21 08:30:07;;;;;;;;;;;;;;;;;;6259759;28;20067;-60
2023/06/21 08:33:08;;;;;;;40.10;26.52;;;;;;;;;;6255734;28;20440;-60
2023/06/21 08:36:11;;;;;;;43.75;27.45;;;;;;;;;;6255752;28;20041;-61
2023/06/21 08:39:12;;;;;;;44.55;26.95;;;;;;;;;;6260526;28;20438;-60
2023/06/21 08:42:12;;;;;;;57.25;27.50;;;;;;;;;;6260560;28;20090;-61
2023/06/21 08:45:13;;;;;;;43.97;27.57;;;;;;;;;;6256582;28;20146;-61
2023/06/21 08:48:14;;;;;;;42.28;27.13;;;;;;;;;;6258417;28;20515;-58
2023/06/21 08:51:15;;;;;;;;;;;;;;;;;;6260345;28;20127;-60
2023/06/21 08:54:23;;;;;;;37.47;23.92;;;;;;;;;;6257816;28;19940;-61
2023/06/21 08:57:27;;;;;;;38.78;25.50;;;;;;;;;;6260942;28;20469;-60
2023/06/21 09:00:39;;;;;;;40.35;25.65;;;;;;;;;;6257963;28;20044;-61
2023/06/21 09:03:49;;;;;;;37.17;25.48;;;;;;;;;;6258945;28;20045;-60
2023/06/21 09:06:51;;;;;;;42.20;26.75;;;;;;;;;;6256948;28;20057;-60
2023/06/21 09:09:54;;;;;;;38.25;24.92;;;;;;;;;;6257346;28;20443;-60
2023/06/21 09:12:56;;;;;;;40.65;26.55;;;;;;;;;;6259147;28;20044;-59
2023/06/21 09:15:58;;;;;;;40.45;26.50;;;;;;;;;;6256263;28;20053;-61
2023/06/21 09:18:59;;;;;;;41.50;25.92;;;;;;;;;;6259476;28;20299;-61
2023/06/21 09:22:00;;;;;;;46.30;25.70;;;;;;;;;;6257115;28;20056;-61
2023/06/21 09:25:00;;;;;;;45.78;27.65;;;;;;;;;;6251310;28;20057;-62
2023/06/21 09:28:01;;;;;;;46.08;26.38;;;;;;;;;;6250354;28;20041;-57
2023/06/21 09:31:02;;;;;;;39.42;25.80;;;;;;;;;;6271686;28;20132;-60
2023/06/21 09:34:02;;;;;;;41.60;26.30;;;;;;;;;;6257474;28;20060;-57
2023/06/21 09:37:03;;;;;;;35.97;24.88;;;;;;;;;;6253025;28;20541;-58
2023/06/21 09:40:04;;;;;;;38.33;26.25;;;;;;;;;;6250486;28;20060;-59
2023/06/21 09:43:05;;;;;;;;;;;;;;;;;;6246465;28;20059;-59
2023/06/21 09:46:08;;;;;;;36.57;25.20;;;;;;;;;;6254596;28;20241;-60
2023/06/21 09:49:10;;;;;;;35.88;25.33;;;;;;;;;;6256314;28;20057;-59
2023/06/21 09:52:10;;;;;;;41.47;25.08;;;;;;;;;;6254209;28;21009;-60
2023/06/21 09:55:15;;;;;;;39.85;24.10;;;;;;;;;;6255392;28;20508;-60
2023/06/21 09:58:16;;;;;;;40.58;24.50;;;;;;;;;;6256146;28;20064;-60
2023/06/21 10:01:17;;;;;;;36.90;25.50;;;;;;;;;;6256611;28;20068;-60
2023/06/21 10:04:18;;;;;;;34.00;25.20;;;;;;;;;;6256030;28;20461;-59
2023/06/21 10:07:19;;;;;;;;;;;;;;;;;;6255905;28;20052;-59
2023/06/21 10:10:20;;;;;;;37.92;23.13;;;;;;;;;;6257458;28;20414;-59
2023/06/21 10:13:28;;;;;;;31.58;21.98;;;;;;;;;;6254688;28;20090;-59
2023/06/21 10:16:32;;;;;;;34.60;23.45;;;;;;;;;;6252695;28;20096;-60
2023/06/21 10:19:34;;;;;;;34.10;23.10;;;;;;;;;;6255900;28;20041;-61
2023/06/21 10:22:37;;;;;;;34.60;24.25;;;;;;;;;;6251028;28;20045;-62
2023/06/21 10:25:40;;;;;;;39.80;25.33;;;;;;;;;;6253253;28;20140;-61
2023/06/21 10:28:45;;;;;;;34.90;23.80;;;;;;;;;;6255204;28;20049;-58
2023/06/21 10:31:48;;;;;;;36.42;24.42;;;;;;;;;;6256519;28;20214;-60
2023/06/21 10:35:11;;;;;;;37.25;26.27;;;;;;;;;;6256807;28;20056;-59
2023/06/21 10:38:30;;;;;;;36.28;24.63;;;;;;;;;;6253087;28;20045;-60
2023/06/21 10:41:32;;;;;;;36.45;25.15;;;;;;;;;;6254397;28;20652;-59
2023/06/21 10:44:34;;;;;;;40.28;26.70;;;;;;;;;;6249833;28;20049;-60
2023/06/21 10:47:36;;;;;;;37.47;26.20;;;;;;;;;;6249724;28;20053;-57
2023/06/21 10:50:39;;;;;;;38.08;25.70;;;;;;;;;;6250478;28;20147;-58
2023/06/21 10:53:40;;;;;;;45.47;27.13;;;;;;;;;;6250088;28;20083;-59
2023/06/21 10:56:41;;;;;;;42.63;27.90;;;;;;;;;;6250372;28;20505;-60
2023/06/21 10:59:43;;;;;;;42.17;27.80;;;;;;;;;;6250865;28;20049;-61
2023/06/21 11:02:44;;;;;;;41.85;29.30;;;;;;;;;;6248709;28;20060;-60
2023/06/21 11:05:44;;;;;;;45.63;28.45;;;;;;;;;;6253604;28;20041;-60
2023/06/21 11:08:45;;;;;;;45.65;28.40;;;;;;;;;;6252821;28;20064;-61
2023/06/21 11:11:53;;;;;;;46.80;29.97;;;;;;;;;;6253067;28;20463;-60
2023/06/21 11:14:55;;;;;;;48.53;29.38;;;;;;;;;;6252245;28;20053;-60
2023/06/21 11:17:56;;;;;;;;;;;;;;;;;;6250101;28;20045;-61
2023/06/21 11:20:57;;;;;;;48.40;30.83;;;;;;;;;;6247540;28;19932;-59
2023/06/21 11:23:57;;;;;;;46.40;30.67;;;;;;;;;;6251383;28;20084;-58
2023/06/21 11:27:06;;;;;;;55.07;32.70;;;;;;;;;;6251093;28;20055;-60
2023/06/21 11:30:10;;;;;;;52.10;32.78;;;;;;;;;;6247364;28;20044;-59
2023/06/21 11:33:20;;;;;;;50.53;32.05;;;;;;;;;;6247884;28;20117;-60
2023/06/21 11:36:31;;;;;;;49.55;32.13;;;;;;;;;;6251980;28;20037;-61
2023/06/21 11:39:32;;;;;;;49.13;30.63;;;;;;;;;;6251693;28;20045;-59
2023/06/21 11:42:34;;;;;;;47.17;31.03;;;;;;;;;;6247265;28;20048;-57
2023/06/21 11:45:36;;;;;;;51.30;32.08;;;;;;;;;;6248521;28;20110;-61
2023/06/21 11:48:39;;;;;;;46.83;31.33;;;;;;;;;;6249682;28;20041;-60
2023/06/21 11:51:51;;;;;;;50.63;32.42;;;;;;;;;;6247357;28;20982;-58
2023/06/21 11:54:51;;;;;;;;;;;;;;;;;;6250081;28;20064;-61
2023/06/21 11:57:57;;;;;;;40.40;27.87;;;;;;;;;;6250425;28;19928;-59
2023/06/21 12:00:57;;;;;;;42.92;29.13;;;;;;;;;;6267902;28;20045;-57
2023/06/21 12:03:59;;;;;;;42.25;29.88;;;;;;;;;;6245390;28;20156;-58
2023/06/21 12:07:00;;;;;;;44.83;30.60;;;;;;;;;;6250281;28;20041;-60
2023/06/21 12:10:01;;;;;;;42.85;29.58;;;;;;;;;;6249883;28;20106;-60
2023/06/21 12:13:05;;;;;;;42.40;30.58;;;;;;;;;;6250691;28;20045;-60
2023/06/21 12:16:07;;;;;;;39.65;27.95;;;;;;;;;;6254019;28;20143;-59
2023/06/21 12:19:10;;;;;;;43.03;28.75;;;;;;;;;;6245749;28;20057;-61
2023/06/21 12:22:13;;;;;;;39.90;27.75;;;;;;;;;;6239267;28;20636;-61
2023/06/21 12:25:13;;;;;;;32.03;22.13;;;;;;;;;;6245306;28;20061;-60
2023/06/21 12:28:15;;;;;;;26.73;20.33;;;;;;;;;;6246065;28;20618;-60
2023/06/21 12:31:17;;;;;;;28.15;20.08;;;;;;;;;;6245004;28;20457;-60
2023/06/21 12:34:18;;;;;;;29.80;20.63;;;;;;;;;;6242250;28;20480;-59
2023/06/21 12:37:20;;;;;;;27.38;19.55;;;;;;;;;;6246693;28;20044;-59
2023/06/21 12:40:20;;;;;;;26.40;18.83;;;;;;;;;;6245102;28;20037;-59
2023/06/21 12:43:46;;;;;;;32.03;19.73;;;;;;;;;;6241849;28;20463;-59
2023/06/21 12:46:48;;;;;;;29.42;19.67;;;;;;;;;;6246001;28;20128;-59
2023/06/21 12:49:48;;;;;;;31.27;21.60;;;;;;;;;;6246174;28;20045;-60
2023/06/21 12:53:00;;;;;;;30.55;20.88;;;;;;;;;;6243553;28;21165;-60
2023/06/21 12:56:09;;;;;;;30.00;21.67;;;;;;;;;;6242800;28;20528;-60
2023/06/21 12:59:10;;;;;;;30.40;21.05;;;;;;;;;;6242262;28;20073;-61
2023/06/21 13:02:10;;;;;;;31.50;21.35;;;;;;;;;;6242220;28;20099;-61
2023/06/21 13:05:11;;;;;;;31.02;21.70;;;;;;;;;;6242902;28;20053;-60
2023/06/21 13:08:11;;;;;;;32.13;20.70;;;;;;;;;;6249266;28;20048;-59
2023/06/21 13:11:12;;;;;;;32.30;22.33;;;;;;;;;;6250619;28;20045;-59
2023/06/21 13:14:13;;;;;;;32.05;22.48;;;;;;;;;;6246187;28;20045;-61
2023/06/21 13:17:14;;;;;;;38.33;21.95;;;;;;;;;;6250069;28;20094;-60
2023/06/21 13:20:16;;;;;;;29.20;20.80;;;;;;;;;;6249696;28;20650;-60
2023/06/21 13:23:17;;;;;;;32.05;21.33;;;;;;;;;;6245825;28;20309;-59
2023/06/21 13:26:18;;;;;;;32.67;21.60;;;;;;;;;;6247761;28;20503;-60
2023/06/21 13:29:19;;;;;;;32.17;22.80;;;;;;;;;;6248248;28;20043;-60
2023/06/21 13:32:20;;;;;;;32.93;22.33;;;;;;;;;;6247660;28;20041;-59
2023/06/21 13:35:20;;;;;;;29.42;21.55;;;;;;;;;;6247664;28;20045;-59
2023/06/21 13:38:21;;;;;;;29.27;21.20;;;;;;;;;;6248753;28;20053;-61
2023/06/21 13:41:22;;;;;;;;;;;;;;;;;;6249354;28;20045;-59
2023/06/21 13:44:23;;;;;;;29.73;21.20;;;;;;;;;;6244538;28;19936;-59
2023/06/21 13:47:23;;;;;;;30.35;20.85;;;;;;;;;;6246533;28;20056;-60
2023/06/21 13:50:24;;;;;;;30.40;22.13;;;;;;;;;;6248237;28;20041;-60
2023/06/21 13:53:26;;;;;;;31.15;22.52;;;;;;;;;;6247898;28;20045;-60
2023/06/21 13:56:27;;;;;;;30.05;21.40;;;;;;;;;;6244804;28;20422;-60
2023/06/21 13:59:28;;;;;;;36.90;22.85;;;;;;;;;;6245641;28;20049;-60
2023/06/21 14:02:28;;;;;;;;;;;;;;;;;;6246638;28;20123;-61
2023/06/21 14:05:30;;;;;;;34.33;22.45;;;;;;;;;;6247990;28;19935;-60
2023/06/21 14:08:30;;;;;;;30.90;22.23;;;;;;;;;;6250760;28;20045;-60
2023/06/21 14:11:31;;;;;;;;;;;;;;;;;;6249847;28;20103;-60
2023/06/21 14:14:32;;;;;;;32.35;21.60;;;;;;;;;;6243710;28;21343;-60
2023/06/21 14:17:33;;;;;;;32.45;21.33;;;;;;;;;;6247200;28;20072;-60
2023/06/21 14:20:34;;;;;;;31.55;21.35;;;;;;;;;;6248417;28;20071;-60
2023/06/21 14:23:35;;;;;;;29.05;21.13;;;;;;;;;;6247156;28;20692;-61
2023/06/21 14:26:36;;;;;;;31.52;22.48;;;;;;;;;;6255105;28;20045;-60
2023/06/21 14:29:39;;;;;;;32.80;22.02;;;;;;;;;;6256242;28;20049;-60
2023/06/21 14:32:40;;;;;;;31.45;21.85;;;;;;;;;;6254199;28;20067;-60
2023/06/21 14:35:40;;;;;;;36.17;24.05;;;;;;;;;;6255549;28;20041;-60
2023/06/21 14:38:41;;;;;;;29.40;22.45;;;;;;;;;;6255712;28;20059;-59
2023/06/21 14:41:42;;;;;;;31.33;22.45;;;;;;;;;;6255340;28;20056;-58
2023/06/21 14:44:43;;;;;;;30.75;21.45;;;;;;;;;;6252604;28;20057;-56
2023/06/21 14:47:47;;;;;;;31.75;21.75;;;;;;;;;;6255035;28;20045;-58
2023/06/21 14:50:47;;;;;;;29.98;20.55;;;;;;;;;;6256095;28;20049;-58
2023/06/21 14:53:48;;;;;;;;;;;;;;;;;;6253696;28;20033;-60
2023/06/21 14:56:49;;;;;;;29.47;21.27;;;;;;;;;;6256011;28;19928;-59
2023/06/21 14:59:50;;;;;;;;;;;;;;;;;;6256272;28;20818;-59
2023/06/21 15:02:51;;;;;;;29.65;21.00;;;;;;;;;;6253264;28;20296;-57
2023/06/21 15:05:52;;;;;;;30.20;19.73;;;;;;;;;;6254302;28;20060;-58
2023/06/21 15:08:52;;;;;;;;;;;;;;;;;;6255634;28;20049;-59
2023/06/21 15:11:53;;;;;;;31.20;21.13;;;;;;;;;;6253780;28;19928;-61
2023/06/21 15:14:53;;;;;;;;;;;;;;;;;;6254075;28;20052;-60
2023/06/21 15:17:54;;;;;;;28.05;19.83;;;;;;;;;;6254853;28;19974;-59
2023/06/21 15:20:55;;;;;;;27.20;20.30;;;;;;;;;;6255075;28;20736;-59
2023/06/21 15:23:55;;;;;;;27.60;20.30;;;;;;;;;;6250012;28;20084;-61
2023/06/21 15:26:56;;;;;;;31.33;21.00;;;;;;;;;;6254614;28;20094;-58
2023/06/21 15:29:56;;;;;;;;;;;;;;;;;;6254961;28;20064;-59
2023/06/21 15:32:57;;;;;;;29.53;21.37;;;;;;;;;;6252526;28;19931;-59
2023/06/21 15:35:57;;;;;;;27.10;21.10;;;;;;;;;;6252599;28;20592;-60
2023/06/21 15:38:58;;;;;;;;;;;;;;;;;;6255678;28;20064;-59
2023/06/21 15:41:59;;;;;;;32.33;20.93;;;;;;;;;;6252443;28;19928;-59
2023/06/21 15:44:59;;;;;;;;;;;;;;;;;;6252768;28;20041;-59
2023/06/21 15:48:00;;;;;;;29.07;21.60;;;;;;;;;;6253671;28;20677;-59
2023/06/21 15:51:00;;;;;;;;;;;;;;;;;;6253727;28;20045;-60
2023/06/21 15:54:01;;;;;;;29.90;21.65;;;;;;;;;;6251518;28;19925;-58
2023/06/21 15:57:01;;;;;;;;;;;;;;;;;;6253985;28;20119;-59
2023/06/21 16:00:03;;;;;;;31.40;22.17;;;;;;;;;;6255055;28;20017;-60
2023/06/21 16:03:03;;;;;;;30.83;22.27;;;;;;;;;;6250226;28;20131;-60
2023/06/21 16:06:04;;;;;;;;;;;;;;;;;;6253336;28;20480;-59
2023/06/21 16:09:06;;;;;;;34.10;23.07;;;;;;;;;;6254190;28;19960;-58
2023/06/21 16:12:07;;;;;;;37.97;23.98;;;;;;;;;;6252738;28;20102;-62
2023/06/21 16:15:08;;;;;;;;;;;;;;;;;;6253656;28;20052;-60
2023/06/21 16:18:09;;;;;;;32.65;23.27;;;;;;;;;;6253469;28;19967;-55
2023/06/21 16:21:09;;;;;;;;;;;;;;;;;;6254487;28;20641;-57
2023/06/21 16:24:14;;;;;;;38.65;24.13;;;;;;;;;;6249860;28;19928;-59
2023/06/21 16:27:14;;;;;;;35.63;23.48;;;;;;;;;;6254371;28;20063;-58
2023/06/21 16:30:15;;;;;;;;;;;;;;;;;;6255147;28;20052;-60
2023/06/21 16:33:15;;;;;;;42.17;24.47;;;;;;;;;;6251032;28;19929;-59
2023/06/21 16:36:16;;;;;;;;;;;;;;;;;;6254129;28;20095;-53
2023/06/21 16:39:17;;;;;;;32.53;23.90;;;;;;;;;;6254046;28;19929;-58
2023/06/21 16:42:17;;;;;;;34.63;24.23;;;;;;;;;;6255337;28;20087;-58
2023/06/21 16:45:18;;;;;;;39.78;26.55;;;;;;;;;;6257664;28;20049;-56
2023/06/21 16:48:19;;;;;;;34.60;23.75;;;;;;;;;;6258896;28;20059;-58
2023/06/21 16:51:20;;;;;;;37.10;24.50;;;;;;;;;;6257751;28;20044;-59
2023/06/21 16:54:21;;;;;;;;;;;;;;;;;;6257615;28;20049;-59
2023/06/21 16:57:21;;;;;;;37.70;24.10;;;;;;;;;;6258419;28;19925;-59
2023/06/21 17:00:22;;;;;;;43.05;28.80;;;;;;;;;;6256648;28;20063;-60
2023/06/21 17:03:22;;;;;;;85.32;53.28;;;;;;;;;;6255379;28;20053;-55
2023/06/21 17:06:24;;;;;;;58.63;40.40;;;;;;;;;;6253214;28;20118;-58
2023/06/21 17:09:24;;;;;;;54.85;34.53;;;;;;;;;;6255284;28;20083;-55
2023/06/21 17:12:25;;;;;;;43.45;30.50;;;;;;;;;;6251329;28;20150;-55
2023/06/21 17:15:27;;;;;;;46.43;32.03;;;;;;;;;;6257460;28;20060;-58
2023/06/21 17:18:29;;;;;;;38.72;25.15;;;;;;;;;;6254395;28;20310;-59
2023/06/21 17:21:29;;;;;;;45.97;29.07;;;;;;;;;;6254730;28;20048;-59
2023/06/21 17:24:31;;;;;;;46.08;28.75;;;;;;;;;;6252099;28;20049;-59
2023/06/21 17:27:31;;;;;;;55.75;37.42;;;;;;;;;;6253779;28;20407;-59
2023/06/21 17:30:32;;;;;;;38.42;27.00;;;;;;;;;;6249752;28;20563;-55
2023/06/21 17:33:33;;;;;;;39.93;25.93;;;;;;;;;;6252021;28;20567;-59
2023/06/21 17:36:34;;;;;;;38.47;26.25;;;;;;;;;;6237102;28;20056;-59
2023/06/21 17:39:35;;;;;;;57.83;27.13;;;;;;;;;;6255554;28;20074;-60
2023/06/21 17:42:37;;;;;;;38.33;26.27;;;;;;;;;;6253215;28;20309;-57
2023/06/21 17:45:37;;;;;;;36.20;26.30;;;;;;;;;;6255660;28;20417;-58
2023/06/21 17:48:38;;;;;;;39.50;27.55;;;;;;;;;;6255913;28;20049;-60